createdAt,value
2022-11-14T00:00:00.608Z,96.2
2022-11-14T00:05:00.584Z,96.2
2022-11-14T00:10:00.485Z,96.2
2022-11-14T00:15:00.444Z,96.2
2022-11-14T00:20:00.441Z,96.2
2022-11-14T00:25:00.449Z,96.2
2022-11-14T00:30:00.409Z,96.5
2022-11-14T00:35:00.266Z,96.5
2022-11-14T00:40:00.106Z,96.5
2022-11-14T00:45:00.121Z,96.8
2022-11-14T00:50:00.097Z,96.5
2022-11-14T00:55:00.136Z,96.2
2022-11-14T01:00:00.161Z,96.5
2022-11-14T01:05:00.114Z,96.8
2022-11-14T01:10:00.157Z,96.8
2022-11-14T01:15:00.129Z,96.5
2022-11-14T01:20:00.131Z,96.5
2022-11-14T01:25:00.136Z,96.8
2022-11-14T01:30:00.161Z,96.8
2022-11-14T01:35:00.149Z,96.5
2022-11-14T01:40:00.175Z,96.2
2022-11-14T01:45:00.154Z,96.2
2022-11-14T01:50:00.185Z,96.5
2022-11-14T01:55:00.173Z,96.5
2022-11-14T02:00:00.185Z,96.8
2022-11-14T02:05:00.178Z,96.5
2022-11-14T02:10:00.186Z,96.5
2022-11-14T02:15:00.187Z,96.2
2022-11-14T02:20:04.817Z,96.5
2022-11-14T02:25:00.208Z,96.6
2022-11-14T02:30:00.211Z,96.9
2022-11-14T02:35:00.237Z,96.5
2022-11-14T02:40:00.218Z,96.6
2022-11-14T02:45:00.233Z,96.6
2022-11-14T02:50:00.227Z,96.6
2022-11-14T02:55:00.241Z,96.6
2022-11-14T03:00:00.262Z,96.3
2022-11-14T03:05:00.762Z,96.3
2022-11-14T03:10:00.783Z,96.3
2022-11-14T03:15:00.769Z,96.3
2022-11-14T03:20:00.821Z,96.3
2022-11-14T03:25:00.786Z,96.3
2022-11-14T03:30:00.798Z,96.3
2022-11-14T03:35:00.814Z,96
2022-11-14T03:40:00.803Z,96
2022-11-14T03:45:00.807Z,96.3
2022-11-14T03:50:00.807Z,96
2022-11-14T03:55:00.818Z,96
2022-11-14T04:00:00.829Z,95.7
2022-11-14T04:05:00.835Z,95.7
2022-11-14T04:10:00.869Z,96
2022-11-14T04:15:00.829Z,96.4
2022-11-14T04:20:00.852Z,96.3
2022-11-14T04:25:00.848Z,96
2022-11-14T04:30:00.855Z,96.1
2022-11-14T04:35:00.854Z,95.7
2022-11-14T04:40:00.870Z,96
2022-11-14T04:45:00.905Z,96
2022-11-14T04:50:00.866Z,96
2022-11-14T04:55:00.873Z,96
2022-11-14T05:00:00.876Z,95.7
2022-11-14T05:05:00.881Z,95.8
2022-11-14T05:10:00.934Z,95.7
2022-11-14T05:15:00.940Z,95.7
2022-11-14T05:20:00.944Z,95.7
2022-11-14T05:25:00.965Z,95.7
2022-11-14T05:30:00.960Z,95.8
2022-11-14T05:35:00.925Z,95.7
2022-11-14T05:40:00.922Z,95.4
2022-11-14T05:45:00.940Z,95.1
2022-11-14T05:50:00.936Z,95.4
2022-11-14T05:55:00.945Z,95.4
2022-11-14T06:00:00.945Z,95.7
2022-11-14T06:05:00.942Z,95.8
2022-11-14T06:10:00.953Z,95.7
2022-11-14T06:15:00.970Z,95.4
2022-11-14T06:20:00.959Z,95.7
2022-11-14T06:25:01.014Z,95.7
2022-11-14T06:30:01.033Z,95.8
2022-11-14T06:35:00.152Z,95.4
2022-11-14T06:40:00.181Z,95.5
2022-11-14T06:45:00.174Z,95.5
2022-11-14T06:50:00.191Z,95.5
2022-11-14T06:55:00.183Z,95.8
2022-11-14T07:00:00.170Z,95.5
2022-11-14T07:05:00.176Z,95.2
2022-11-14T07:10:00.180Z,95.2
2022-11-14T07:15:00.906Z,95.5
2022-11-14T07:20:00.182Z,95.2
2022-11-14T07:25:00.201Z,95.2
2022-11-14T07:30:00.316Z,95.2
2022-11-14T07:35:02.298Z,95.2
2022-11-14T07:40:00.223Z,95.2
2022-11-14T07:45:00.223Z,95.2
2022-11-14T07:50:00.233Z,95.2
2022-11-14T07:55:00.242Z,94.9
2022-11-14T08:00:00.243Z,94.9
2022-11-14T08:05:00.257Z,95.2
2022-11-14T08:10:00.824Z,94.9
2022-11-14T08:15:00.628Z,94.6
2022-11-14T08:20:00.266Z,95.2
2022-11-14T08:25:00.271Z,94.6
2022-11-14T08:30:00.273Z,94.7
2022-11-14T08:35:00.296Z,94.6
2022-11-14T08:40:00.334Z,94.7
2022-11-14T08:45:00.307Z,94.7
2022-11-14T08:50:00.304Z,94.7
2022-11-14T08:55:00.311Z,94.4
2022-11-14T09:00:00.300Z,94.4
2022-11-14T09:05:00.485Z,94.1
2022-11-14T09:10:00.314Z,94.1
2022-11-14T09:15:00.336Z,94.1
2022-11-14T09:20:00.840Z,94.2
2022-11-14T09:25:00.351Z,93.9
2022-11-14T09:30:00.357Z,93.8
2022-11-14T09:35:00.352Z,93.8
2022-11-14T09:40:00.348Z,94.2
2022-11-14T09:45:00.351Z,94.2
2022-11-14T09:50:00.355Z,94.2
2022-11-14T09:55:00.379Z,93.9
2022-11-14T10:00:00.400Z,93.6
2022-11-14T10:05:00.856Z,93.6
2022-11-14T10:10:00.991Z,93.6
2022-11-14T10:15:00.411Z,93.3
2022-11-14T10:20:00.393Z,93.9
2022-11-14T10:25:00.389Z,93.7
2022-11-14T10:30:00.395Z,93.1
2022-11-14T10:35:00.402Z,93
2022-11-14T10:40:00.399Z,93.4
2022-11-14T10:45:00.405Z,93.1
2022-11-14T10:50:00.416Z,92.5
2022-11-14T10:55:00.417Z,92.5
2022-11-14T11:00:00.431Z,92.5
2022-11-14T11:05:00.911Z,92.2
2022-11-14T11:10:00.971Z,92.5
2022-11-14T11:15:00.444Z,92.2
2022-11-14T11:20:05.081Z,92
2022-11-14T11:25:00.450Z,91.7
2022-11-14T11:30:00.471Z,91.4
2022-11-14T11:35:00.957Z,91.3
2022-11-14T11:40:00.468Z,91.7
2022-11-14T11:45:00.465Z,92
2022-11-14T11:50:00.474Z,92
2022-11-14T11:55:00.481Z,92
2022-11-14T12:00:00.501Z,91.4
2022-11-14T12:05:00.484Z,90.9
2022-11-14T12:10:10.126Z,90.2
2022-11-14T12:15:00.497Z,90.3
2022-11-14T12:20:00.598Z,90.3
2022-11-14T12:25:00.667Z,89.9
2022-11-14T12:30:00.640Z,90.3
2022-11-14T12:35:00.490Z,89.6
2022-11-14T12:40:00.217Z,90.3
2022-11-14T12:45:00.139Z,89.9
2022-11-14T12:50:00.119Z,90.3
2022-11-14T12:55:00.138Z,89.4
2022-11-14T13:00:00.125Z,89.4
2022-11-14T13:05:00.127Z,89.4
2022-11-14T13:10:00.153Z,89.7
2022-11-14T13:15:00.133Z,89.7
2022-11-14T13:20:00.137Z,88.5
2022-11-14T13:25:00.145Z,87.9
2022-11-14T13:30:00.283Z,88.2
2022-11-14T13:35:00.149Z,87.3
2022-11-14T13:40:00.159Z,87.6
2022-11-14T13:45:00.166Z,87.9
2022-11-14T13:50:00.192Z,87.9
2022-11-14T13:55:00.202Z,87.2
2022-11-14T14:00:00.179Z,87.8
2022-11-14T14:05:00.235Z,88.1
2022-11-14T14:10:00.188Z,87.8
2022-11-14T14:15:00.200Z,88.1
2022-11-14T14:20:00.217Z,88.7
2022-11-14T14:25:00.210Z,87.8
2022-11-14T14:30:00.216Z,89
2022-11-14T14:35:00.220Z,89
2022-11-14T14:40:00.253Z,88.7
2022-11-14T14:45:00.773Z,89
2022-11-14T14:50:00.227Z,89
2022-11-14T14:55:00.238Z,89
2022-11-14T15:00:00.367Z,89.3
2022-11-14T15:05:00.243Z,89.9
2022-11-14T15:10:00.250Z,89.5
2022-11-14T15:15:00.264Z,90.2
2022-11-14T15:20:00.284Z,90.2
2022-11-14T15:25:00.265Z,90.4
2022-11-14T15:30:00.281Z,90.7
2022-11-14T15:35:00.280Z,90.7
2022-11-14T15:40:00.397Z,91.3
2022-11-14T15:45:00.286Z,91.3
2022-11-14T15:50:00.306Z,91.3
2022-11-14T15:55:00.297Z,91.9
2022-11-14T16:00:00.306Z,91.9
2022-11-14T16:05:00.307Z,91.9
2022-11-14T16:10:00.337Z,92.5
2022-11-14T16:15:00.370Z,92.8
2022-11-14T16:20:00.432Z,92.8
2022-11-14T16:25:00.392Z,93.1
2022-11-14T16:30:00.598Z,93.2
2022-11-14T16:35:00.366Z,93.2
2022-11-14T16:40:00.469Z,93.2
2022-11-14T16:45:00.478Z,93.2
2022-11-14T16:50:00.532Z,93.2
2022-11-14T16:55:00.357Z,93.2
2022-11-14T17:00:00.370Z,93.2
2022-11-14T17:05:00.396Z,93.2
2022-11-14T17:10:00.390Z,93.1
2022-11-14T17:15:00.395Z,93.1
2022-11-14T17:20:00.388Z,93.1
2022-11-14T17:25:00.445Z,93.1
2022-11-14T17:30:00.402Z,92.5
2022-11-14T17:35:00.400Z,92.4
2022-11-14T17:40:00.410Z,92.4
2022-11-14T17:45:00.405Z,92.1
2022-11-14T17:50:00.417Z,92.4
2022-11-14T17:55:00.420Z,91.7
2022-11-14T18:00:00.438Z,91.7
2022-11-14T18:05:00.428Z,92.2
2022-11-14T18:10:00.436Z,92.2
2022-11-14T18:15:00.451Z,92.8
2022-11-14T18:20:00.452Z,93.4
2022-11-14T18:25:06.436Z,92.8
2022-11-14T18:30:13.431Z,92.7
2022-11-14T18:35:00.337Z,93
2022-11-14T18:40:00.191Z,93.3
2022-11-14T18:45:00.109Z,93.3
2022-11-14T18:50:00.158Z,93.3
2022-11-14T18:55:00.143Z,93.3
2022-11-14T19:00:00.161Z,93.9
2022-11-14T19:05:00.179Z,93.5
2022-11-14T19:10:00.121Z,93.5
2022-11-14T19:15:00.158Z,93.2
2022-11-14T19:20:00.142Z,93.8
2022-11-14T19:25:00.176Z,93.8
2022-11-14T19:30:00.162Z,94.1
2022-11-14T19:35:00.177Z,94.4
2022-11-14T19:40:00.211Z,94.4
2022-11-14T19:45:00.167Z,94.4
2022-11-14T19:50:00.172Z,94
2022-11-14T19:55:00.181Z,94.3
2022-11-14T20:00:00.184Z,94.3
2022-11-14T20:05:00.186Z,94.3
2022-11-14T20:10:00.189Z,94
2022-11-14T20:15:00.452Z,94.3
2022-11-14T20:20:00.222Z,94.3
2022-11-14T20:25:00.206Z,94.2
2022-11-14T20:30:00.218Z,94.2
2022-11-14T20:35:00.289Z,94.8
2022-11-14T20:40:00.328Z,95.1
2022-11-14T20:45:00.350Z,95.4
2022-11-14T20:50:00.392Z,95.4
2022-11-14T20:55:00.355Z,95.4
2022-11-14T21:00:00.268Z,95.7
2022-11-14T21:05:00.241Z,96
2022-11-14T21:10:00.284Z,96
2022-11-14T21:15:00.264Z,96
2022-11-14T21:20:00.263Z,96
2022-11-14T21:25:00.270Z,96.4
2022-11-14T21:30:00.291Z,96.4
2022-11-14T21:35:01.746Z,96.7
2022-11-14T21:40:00.277Z,97.3
2022-11-14T21:45:00.284Z,97
2022-11-14T21:50:01.476Z,97.1
2022-11-14T21:55:01.369Z,97
2022-11-14T22:00:00.302Z,97.3
2022-11-14T22:05:00.319Z,97.4
2022-11-14T22:10:00.322Z,97.4
2022-11-14T22:15:00.315Z,97.4
2022-11-14T22:20:00.331Z,98
2022-11-14T22:25:00.334Z,97.7
2022-11-14T22:30:00.339Z,98
2022-11-14T22:35:00.358Z,98
2022-11-14T22:40:00.355Z,98.4
2022-11-14T22:45:00.366Z,98.1
2022-11-14T22:50:00.359Z,98.1
2022-11-14T22:55:00.374Z,97.8
2022-11-14T23:00:00.368Z,97.4
2022-11-14T23:05:00.369Z,97.7
2022-11-14T23:10:00.543Z,97.4
2022-11-14T23:15:00.456Z,97.7
2022-11-14T23:20:00.467Z,97.4
2022-11-14T23:25:00.500Z,97.4
2022-11-14T23:30:00.467Z,97.1
2022-11-14T23:35:00.465Z,97
2022-11-14T23:40:00.451Z,97
2022-11-14T23:45:00.484Z,96.7
2022-11-14T23:50:00.524Z,97
2022-11-14T23:55:00.488Z,97
